Time;durP1;ratioP1;P1;durP2;ratioP2;P2;SDS_P1;SDS_P2;PMS_P1;PMS_P2;Temp;Humidity;BMP_temperature;BMP_pressure;BME280_temperature;BME280_humidity;BME280_pressure;Samples;Min_cycle;Max_cycle;Signal;HPM_P1;HPM_P2
2021/01/07 04:01:11;;;;;;;17.10;9.55;;;;;;;2.75;100.00;100893.17;1763330;77;21193;-69
2021/01/07 04:03:40;;;;;;;17.37;8.75;;;;;;;2.78;100.00;100891.66;1790623;78;20994;-69
2021/01/07 04:06:09;;;;;;;16.02;9.00;;;;;;;2.80;100.00;100892.34;1791078;78;21352;-70
2021/01/07 04:08:37;;;;;;;18.23;9.83;;;;;;;2.82;100.00;100896.45;1793121;78;22009;-68
2021/01/07 04:11:05;;;;;;;17.10;10.85;;;;;;;2.84;100.00;100896.31;1791907;78;21194;-68
2021/01/07 04:13:34;;;;;;;19.27;10.72;;;;;;;2.86;100.00;100897.03;1789208;78;21238;-71
2021/01/07 04:16:04;;;;;;;20.97;11.15;;;;;;;2.88;100.00;100888.27;1791677;78;21009;-74
2021/01/07 04:18:33;;;;;;;23.85;12.60;;;;;;;2.93;100.00;100891.30;1790922;78;22654;-72
2021/01/07 04:21:03;;;;;;;21.15;11.25;;;;;;;2.98;100.00;100883.68;1791044;78;21052;-72
2021/01/07 04:23:31;;;;;;;21.15;13.43;;;;;;;3.02;100.00;100892.33;1791964;78;20922;-71
2021/01/07 04:26:01;;;;;;;19.42;11.45;;;;;;;3.05;100.00;100885.66;1791687;78;20937;-73
2021/01/07 04:28:30;;;;;;;18.80;10.90;;;;;;;3.07;100.00;100883.80;1788889;78;21344;-70
2021/01/07 04:30:59;;;;;;;19.40;11.28;;;;;;;3.08;100.00;100880.75;1792568;78;21453;-70
2021/01/07 04:33:28;;;;;;;19.85;11.73;;;;;;;3.10;100.00;100876.28;1790939;78;21017;-69
2021/01/07 04:35:57;;;;;;;19.52;10.60;;;;;;;3.12;100.00;100874.42;1787690;78;21025;-76
2021/01/07 04:38:26;;;;;;;16.30;10.20;;;;;;;3.15;100.00;100877.58;1789930;78;21238;-70
2021/01/07 04:40:59;;;;;;;19.42;10.98;;;;;;;3.14;100.00;100875.95;1790630;78;21013;-70
2021/01/07 04:43:27;;;;;;;20.05;11.60;;;;;;;3.11;100.00;100878.76;1789245;78;21552;-70
2021/01/07 04:45:56;;;;;;;19.73;11.35;;;;;;;3.12;100.00;100879.10;1791920;78;21565;-68
2021/01/07 04:48:25;;;;;;;20.88;12.07;;;;;;;3.13;100.00;100876.05;1757987;79;21223;-69
2021/01/07 04:50:53;;;;;;;23.42;12.43;;;;;;;3.13;100.00;100874.77;1794731;78;21120;-72
2021/01/07 04:53:22;;;;;;;24.90;13.05;;;;;;;3.14;100.00;100877.68;1788736;78;21017;-69
2021/01/07 04:55:52;;;;;;;26.52;13.62;;;;;;;3.14;100.00;100876.39;1794040;78;21129;-70
2021/01/07 04:58:20;;;;;;;22.98;12.58;;;;;;;3.15;100.00;100878.87;1791596;78;21175;-70
2021/01/07 05:00:49;;;;;;;32.00;15.10;;;;;;;3.15;100.00;100880.16;1790760;78;21085;-71
2021/01/07 05:03:23;;;;;;;28.35;15.78;;;;;;;3.16;100.00;100877.11;1777715;78;21046;-79
2021/01/07 05:05:52;;;;;;;30.57;15.90;;;;;;;3.16;100.00;100880.50;1731861;78;21219;-70
2021/01/07 05:08:20;;;;;;;26.73;14.53;;;;;;;3.15;100.00;100882.73;1771912;78;22102;-69
2021/01/07 05:10:50;;;;;;;34.70;16.48;;;;;;;3.14;100.00;100877.68;1777144;78;21559;-69
2021/01/07 05:13:19;;;;;;;29.87;16.27;;;;;;;3.09;100.00;100878.05;1779307;78;21035;-70
2021/01/07 05:15:49;;;;;;;32.98;17.35;;;;;;;3.03;100.00;100888.84;1777985;78;21634;-72
2021/01/07 05:18:17;;;;;;;38.58;18.25;;;;;;;3.01;100.00;100890.70;1775039;78;21189;-69
2021/01/07 05:20:46;;;;;;;34.33;16.70;;;;;;;3.01;100.00;100895.04;1776079;78;22232;-69
2021/01/07 05:23:14;;;;;;;31.90;16.25;;;;;;;3.01;100.00;100887.31;1782828;78;21848;-78
2021/01/07 05:25:44;;;;;;;37.35;18.20;;;;;;;3.00;100.00;100885.21;1773041;78;21500;-71
2021/01/07 05:28:12;;;;;;;41.68;19.48;;;;;;;2.99;100.00;100887.41;1781738;78;20979;-69
2021/01/07 05:30:41;;;;;;;26.52;14.55;;;;;;;2.99;100.00;100888.70;1776830;78;21581;-68
2021/01/07 05:33:10;;;;;;;36.58;20.20;;;;;;;3.01;100.00;100884.73;1726004;78;22133;-78
2021/01/07 05:35:38;;;;;;;28.40;16.27;;;;;;;3.02;100.00;100895.38;1776728;78;21211;-68
2021/01/07 05:38:07;;;;;;;56.23;36.58;;;;;;;3.04;100.00;100884.51;1775992;78;21604;-68
2021/01/07 05:40:36;;;;;;;772.83;460.52;;;;;;;3.05;100.00;100884.37;1777892;78;21601;-68
2021/01/07 05:43:13;;;;;;;895.12;527.02;;;;;;;3.07;100.00;100885.09;1775102;78;21527;-72
2021/01/07 05:45:43;;;;;;;365.37;201.50;;;;;;;3.09;100.00;100885.77;1781860;78;21343;-67
2021/01/07 05:48:12;;;;;;;108.67;63.08;;;;;;;3.11;100.00;100880.52;1769254;78;21011;-67
2021/01/07 05:50:40;;;;;;;147.95;76.10;;;;;;;3.12;100.00;100880.39;1780068;78;21114;-67
2021/01/07 05:53:09;;;;;;;154.93;86.12;;;;;;;3.13;100.00;100876.87;1779027;78;21200;-78
2021/01/07 05:55:37;;;;;;;43.40;25.80;;;;;;;3.12;100.00;100873.95;1778752;78;21700;-68
2021/01/07 05:58:06;;;;;;;30.70;17.77;;;;;;;3.12;100.00;100866.70;1774844;78;21199;-67
2021/01/07 06:00:35;;;;;;;28.55;16.32;;;;;;;3.13;100.00;100861.89;1744473;80;21062;-67
2021/01/07 06:03:03;;;;;;;34.53;19.77;;;;;;;3.12;100.00;100865.41;1776228;78;21139;-78
2021/01/07 06:05:33;;;;;;;31.62;18.85;;;;;;;3.11;100.00;100868.45;1779307;79;21212;-67
2021/01/07 06:08:02;;;;;;;35.65;19.27;;;;;;;3.11;100.00;100865.88;1781798;79;21061;-67
2021/01/07 06:10:30;;;;;;;24.00;13.18;;;;;;;3.12;100.00;100862.36;1777246;79;21369;-67
2021/01/07 06:13:01;;;;;;;29.18;16.80;;;;;;;3.12;100.00;100862.36;1776914;79;21101;-72
2021/01/07 06:15:29;;;;;;;38.83;22.80;;;;;;;3.10;100.00;100866.80;1776811;79;21201;-66
2021/01/07 06:17:57;;;;;;;55.52;35.78;;;;;;;3.11;100.00;100865.88;1778463;79;21137;-66
2021/01/07 06:20:26;;;;;;;46.42;23.42;;;;;;;3.13;100.00;100869.14;1702687;80;21176;-66
2021/01/07 06:22:54;;;;;;;40.98;21.27;;;;;;;3.16;100.00;100867.62;1724699;79;22520;-78
2021/01/07 06:25:23;;;;;;;37.67;20.15;;;;;;;3.21;100.00;100875.45;1771641;79;21539;-66
2021/01/07 06:27:52;;;;;;;47.58;35.17;;;;;;;3.28;100.00;100874.03;1777823;79;21223;-71
2021/01/07 06:30:28;;;;;;;36.30;21.37;;;;;;;3.30;100.00;100858.81;1775471;79;20950;-67
2021/01/07 06:33:04;;;;;;;30.65;16.95;;;;;;;3.31;100.00;100837.25;1773189;79;21144;-67
2021/01/07 06:35:39;;;;;;;30.60;17.05;;;;;;;3.33;100.00;100833.25;1782782;79;21210;-67
2021/01/07 06:38:07;;;;;;;30.65;18.87;;;;;;;3.34;100.00;100834.91;1773521;79;21105;-67
2021/01/07 06:40:42;;;;;;;34.63;20.10;;;;;;;3.34;100.00;100835.73;1773336;78;21658;-69
2021/01/07 06:43:35;;;;;;;28.95;16.25;;;;;;;3.35;100.00;100841.70;1768091;78;21654;-68
2021/01/07 06:46:04;;;;;;;30.27;16.73;;;;;;;3.35;100.00;100845.56;1710779;82;21138;-81
2021/01/07 06:48:34;;;;;;;29.00;15.98;;;;;;;3.35;100.00;100839.94;1748301;81;22543;-67
2021/01/07 06:51:04;;;;;;;31.40;17.27;;;;;;;3.35;100.00;100827.05;1716185;82;21084;-66
2021/01/07 06:53:36;;;;;;;41.18;29.15;;;;;;;3.37;100.00;100824.34;1735844;81;21160;-66
2021/01/07 06:56:18;;;;;;;34.18;19.50;;;;;;;3.35;100.00;100822.37;1753427;80;21176;-71
2021/01/07 06:58:47;;;;;;;26.80;15.23;;;;;;;3.36;100.00;100826.58;1762400;81;21069;-67
2021/01/07 07:01:17;;;;;;;34.70;20.45;;;;;;;3.38;100.00;100822.13;1756063;80;21301;-67
2021/01/07 07:03:51;;;;;;;27.93;18.25;;;;;;;3.41;100.00;100820.60;1737179;81;21112;-67
2021/01/07 07:06:22;;;;;;;30.62;17.10;;;;;;;3.45;100.00;100821.15;1713440;81;21148;-66
2021/01/07 07:08:51;;;;;;;31.75;16.75;;;;;;;3.48;100.00;100811.41;1718824;81;21160;-66
2021/01/07 07:11:32;;;;;;;27.48;16.30;;;;;;;3.51;100.00;100808.59;1716969;81;21214;-66
2021/01/07 07:14:17;;;;;;;31.53;19.17;;;;;;;3.61;100.00;100806.92;1827655;75;22037;-67
2021/01/07 07:16:46;;;;;;;31.57;18.12;;;;;;;3.63;100.00;100816.62;1805425;76;21068;-66
2021/01/07 07:19:26;;;;;;;29.82;17.87;;;;;;;3.68;100.00;100816.75;1785954;78;21264;-68
2021/01/07 07:22:00;;;;;;;31.65;19.50;;;;;;;3.74;100.00;100817.04;1780691;78;21111;-67
2021/01/07 07:24:35;;;;;;;32.03;18.65;;;;;;;3.82;100.00;100821.57;1766432;78;21008;-67
2021/01/07 07:27:06;;;;;;;26.57;16.32;;;;;;;3.90;100.00;100815.31;1764398;78;21093;-67
2021/01/07 07:29:35;;;;;;;;;;;;;;;4.02;100.00;100810.45;1778953;78;21571;-66
2021/01/07 07:32:25;;;;;;;30.95;16.97;;;;;;;4.08;100.00;100812.51;1797316;78;21370;-66
2021/01/07 07:34:55;;;;;;;26.52;15.03;;;;;;;4.13;100.00;100805.70;1773826;78;21059;-79
2021/01/07 07:37:25;;;;;;;29.55;15.30;;;;;;;4.21;100.00;100802.48;1800851;78;21037;-67
2021/01/07 07:40:01;;;;;;;23.95;14.15;;;;;;;4.27;100.00;100807.11;1801829;78;21041;-66
2021/01/07 07:42:29;;;;;;;29.92;19.60;;;;;;;4.34;100.00;100804.36;1794830;78;21059;-67
2021/01/07 07:44:58;;;;;;;38.02;23.47;;;;;;;4.38;100.00;100807.84;1796058;78;21211;-67
2021/01/07 07:47:27;;;;;;;23.87;16.50;;;;;;;4.44;100.00;100801.36;1787217;78;21481;-64
2021/01/07 07:49:58;;;;;;;25.65;17.65;;;;;;;4.51;100.00;100795.17;1790662;77;20945;-66
2021/01/07 07:52:26;;;;;;;30.88;19.55;;;;;;;4.57;100.00;100789.02;1802308;77;21183;-67
2021/01/07 07:55:06;;;;;;;25.65;17.25;;;;;;;4.63;100.00;100792.87;1803165;77;21766;-66
2021/01/07 07:57:48;;;;;;;24.37;17.02;;;;;;;4.68;100.00;100788.59;1787384;78;21204;-69
2021/01/07 08:00:17;;;;;;;26.15;16.82;;;;;;;4.73;100.00;100785.94;1805475;78;21534;-76
2021/01/07 08:02:45;;;;;;;28.98;24.12;;;;;;;4.77;100.00;100780.04;1778982;78;21116;-66
2021/01/07 08:05:28;;;;;;;21.93;15.30;;;;;;;4.79;100.00;100772.99;1755896;78;21171;-67
2021/01/07 08:07:57;;;;;;;23.27;15.95;;;;;;;4.82;100.00;100772.73;1783408;78;21563;-76
2021/01/07 08:10:25;;;;;;;24.95;14.70;;;;;;;4.83;100.00;100763.55;1817323;77;22490;-64
2021/01/07 08:12:54;;;;;;;21.97;14.07;;;;;;;4.88;100.00;100767.02;1803551;78;21022;-64
2021/01/07 08:15:31;;;;;;;349.88;219.87;;;;;;;4.92;100.00;100767.56;1795712;78;21020;-65
2021/01/07 08:18:18;;;;;;;1013.73;628.20;;;;;;;4.93;100.00;100754.53;1792514;78;21087;-63
2021/01/07 08:20:51;;;;;;;85.97;64.37;;;;;;;4.98;100.00;100748.48;1795461;78;21035;-69
2021/01/07 08:23:20;;;;;;;33.92;25.72;;;;;;;5.03;100.00;100749.36;1796259;78;21550;-72
2021/01/07 08:25:51;;;;;;;164.15;147.00;;;;;;;5.08;100.00;100739.45;1800011;78;21061;-67
2021/01/07 08:28:44;;;;;;;31.60;24.75;;;;;;;5.09;100.00;100746.25;1792657;78;21105;-67
2021/01/07 08:31:22;;;;;;;26.73;18.02;;;;;;;5.07;100.00;100737.32;1798611;78;21006;-66
2021/01/07 08:33:50;;;;;;;24.20;16.03;;;;;;;5.04;100.00;100736.33;1793633;78;21602;-65
2021/01/07 08:36:21;;;;;;;26.70;17.53;;;;;;;5.02;100.00;100738.21;1795804;78;21715;-67
2021/01/07 08:38:51;;;;;;;30.30;15.87;;;;;;;5.03;100.00;100739.02;1755236;79;21772;-74
2021/01/07 08:41:26;;;;;;;27.10;15.55;;;;;;;5.03;100.00;100730.80;1758446;79;21700;-67
2021/01/07 08:43:56;;;;;;;22.62;15.40;;;;;;;5.05;100.00;100734.55;1773265;79;21168;-67
2021/01/07 08:46:28;;;;;;;22.67;15.03;;;;;;;5.06;100.00;100732.30;1762794;79;21121;-65
2021/01/07 08:49:03;;;;;;;;;;;;;;;5.05;100.00;100726.32;1789828;78;21432;-66
2021/01/07 08:51:44;;;;;;;28.00;16.27;;;;;;;5.03;100.00;100717.88;1777487;79;20242;-66
2021/01/07 08:54:15;;;;;;;;;;;;;;;5.04;100.00;100715.66;1804795;78;21770;-65
2021/01/07 08:56:44;;;;;;;31.40;18.45;;;;;;;5.02;100.00;100711.08;1796319;78;20827;-68
2021/01/07 08:59:29;;;;;;;28.67;18.62;;;;;;;4.98;100.00;100708.44;1796377;78;21231;-65
2021/01/07 09:02:05;;;;;;;31.57;16.32;;;;;;;4.96;100.00;100708.22;1792991;78;21202;-77
2021/01/07 09:04:38;;;;;;;24.37;15.32;;;;;;;4.96;100.00;100707.73;1795372;78;21490;-66
2021/01/07 09:07:18;;;;;;;30.70;17.73;;;;;;;4.96;100.00;100704.34;1799576;78;21120;-67
2021/01/07 09:09:56;;;;;;;30.10;16.43;;;;;;;4.95;100.00;100697.55;1808966;77;21739;-74
2021/01/07 09:12:33;;;;;;;34.55;18.20;;;;;;;4.98;100.00;100698.58;1806971;77;21395;-67
2021/01/07 09:15:11;;;;;;;32.87;17.30;;;;;;;5.00;100.00;100698.80;1778786;79;22116;-66
2021/01/07 09:17:48;;;;;;;30.43;16.02;;;;;;;5.00;100.00;100700.09;1777212;78;21291;-67
2021/01/07 09:20:18;;;;;;;27.40;15.48;;;;;;;4.98;100.00;100696.00;1758225;79;21130;-68
2021/01/07 09:22:47;;;;;;;35.83;18.87;;;;;;;4.98;100.00;100692.94;1782324;78;21133;-71
2021/01/07 09:25:19;;;;;;;34.13;18.50;;;;;;;4.98;100.00;100680.02;1799972;77;21950;-68
2021/01/07 09:27:50;;;;;;;28.00;15.83;;;;;;;5.01;100.00;100673.28;1804035;78;22610;-67
2021/01/07 09:30:20;;;;;;;27.93;15.50;;;;;;;5.05;100.00;100669.95;1802636;77;21124;-66
2021/01/07 09:32:48;;;;;;;30.77;16.90;;;;;;;5.05;100.00;100678.52;1800273;78;21508;-67
2021/01/07 09:35:17;;;;;;;24.47;13.23;;;;;;;5.05;100.00;100672.06;1799318;77;21129;-65
2021/01/07 09:37:46;;;;;;;22.70;13.27;;;;;;;5.07;100.00;100671.43;1803440;77;21365;-66
2021/01/07 09:40:16;;;;;;;29.12;18.27;;;;;;;5.07;100.00;100674.49;1775814;78;21520;-67
2021/01/07 09:42:45;;;;;;;26.33;15.25;;;;;;;5.07;100.00;100670.62;1774756;79;21225;-70
2021/01/07 09:45:13;;;;;;;41.53;23.07;;;;;;;5.07;100.00;100674.02;1781536;78;21541;-67
2021/01/07 09:47:42;;;;;;;407.77;243.60;;;;;;;5.08;100.00;100679.55;1751353;78;21284;-66
2021/01/07 09:50:13;;;;;;;105.72;53.78;;;;;;;5.09;100.00;100670.83;1778365;78;21162;-66
2021/01/07 09:52:42;;;;;;;161.35;92.67;;;;;;;5.10;100.00;100665.99;1796181;77;21375;-72
2021/01/07 09:55:12;;;;;;;48.67;28.67;;;;;;;5.13;100.00;100663.63;1799378;77;21130;-66
2021/01/07 09:57:47;;;;;;;33.10;19.87;;;;;;;5.18;100.00;100652.86;1776625;78;21739;-66
2021/01/07 10:00:14;;;;;;;41.97;34.20;;;;;;;5.21;100.00;100651.30;1788398;78;21676;-69
2021/01/07 10:02:44;;;;;;;36.95;25.70;;;;;;;5.28;100.00;100645.92;1754047;79;21562;-72
2021/01/07 10:05:13;;;;;;;35.63;18.93;;;;;;;5.36;100.00;100635.70;1771004;78;21207;-65
2021/01/07 10:07:41;;;;;;;33.57;19.67;;;;;;;5.42;100.00;100628.69;1777880;79;21269;-65
2021/01/07 10:10:11;;;;;;;36.77;23.00;;;;;;;5.47;100.00;100632.95;1773582;79;21341;-65
2021/01/07 10:12:40;;;;;;;36.13;21.23;;;;;;;5.51;100.00;100633.00;1774541;79;21227;-67
2021/01/07 10:15:10;;;;;;;40.57;24.57;;;;;;;5.55;100.00;100636.13;1771490;79;21260;-66
2021/01/07 10:17:38;;;;;;;35.47;21.33;;;;;;;5.58;100.00;100636.66;1781717;79;22433;-66
2021/01/07 10:20:09;;;;;;;44.00;23.77;;;;;;;5.61;100.00;100634.28;1758548;79;21746;-65
2021/01/07 10:22:38;;;;;;;49.00;32.10;;;;;;;5.63;100.00;100632.83;1787759;79;21291;-72
2021/01/07 10:25:07;;;;;;;34.93;22.37;;;;;;;5.65;100.00;100623.17;1807727;77;21303;-71
2021/01/07 10:27:36;;;;;;;35.80;24.27;;;;;;;5.68;100.00;100615.91;1797704;77;21143;-69
2021/01/07 10:30:07;;;;;;;37.23;20.70;;;;;;;5.70;100.00;100608.03;1807403;77;22109;-66
2021/01/07 10:32:36;;;;;;;31.13;20.57;;;;;;;5.73;100.00;100606.46;1807681;77;21116;-72
2021/01/07 10:35:05;;;;;;;43.20;26.13;;;;;;;5.77;100.00;100597.45;1805425;77;21414;-64
2021/01/07 10:37:35;;;;;;;34.33;21.43;;;;;;;5.81;100.00;100593.63;1791479;78;21296;-65
2021/01/07 10:40:06;;;;;;;35.53;20.80;;;;;;;5.86;100.00;100587.04;1796876;78;21743;-70
2021/01/07 10:42:34;;;;;;;33.80;21.30;;;;;;;5.91;100.00;100576.28;1798859;77;21382;-72
2021/01/07 10:45:04;;;;;;;26.00;17.03;;;;;;;5.95;100.00;100574.25;1806891;78;20990;-67
2021/01/07 10:47:37;;;;;;;34.03;20.47;;;;;;;5.99;100.00;100572.52;1794302;77;21346;-66
2021/01/07 10:50:04;;;;;;;29.53;18.93;;;;;;;6.02;100.00;100570.09;1805065;77;21309;-66
2021/01/07 10:53:11;;;;;;;30.63;19.83;;;;;;;6.04;100.00;100569.48;1773784;79;21646;-72
2021/01/07 10:56:04;;;;;;;36.27;19.00;;;;;;;6.03;100.00;100566.57;1758434;79;21357;-66
2021/01/07 10:59:07;;;;;;;31.73;19.10;;;;;;;6.01;100.00;100562.01;1799154;78;21561;-66
2021/01/07 11:01:56;;;;;;;28.10;18.00;;;;;;;6.01;100.00;100557.64;1791101;78;21275;-74
2021/01/07 11:04:45;;;;;;;28.27;18.33;;;;;;;6.01;100.00;100553.77;1796206;78;21365;-66
2021/01/07 11:07:20;;;;;;;25.90;17.03;;;;;;;6.00;100.00;100540.50;1793473;78;21726;-66
2021/01/07 11:09:51;;;;;;;29.50;18.67;;;;;;;5.99;100.00;100536.30;1798969;78;21272;-66
2021/01/07 11:12:22;;;;;;;32.65;18.65;;;;;;;5.97;100.00;100533.50;1797263;78;21215;-69
2021/01/07 11:15:03;;;;;;;32.30;20.55;;;;;;;5.94;100.00;100527.32;1796528;78;24190;-64
2021/01/07 11:17:35;;;;;;;31.97;19.75;;;;;;;5.92;100.00;100522.30;1801839;78;21113;-66
2021/01/07 11:20:06;;;;;;;28.67;19.07;;;;;;;5.92;100.00;100521.02;1785328;78;21595;-65
2021/01/07 11:22:36;;;;;;;28.93;19.67;;;;;;;5.89;100.00;100513.50;1773613;79;21197;-71
2021/01/07 11:25:07;;;;;;;32.00;21.57;;;;;;;5.90;100.00;100507.36;1760044;79;23029;-65
2021/01/07 11:27:36;;;;;;;29.43;22.00;;;;;;;5.93;100.00;100509.70;1759589;79;21731;-65
2021/01/07 11:30:06;;;;;;;36.03;24.17;;;;;;;5.96;100.00;100503.42;1770860;79;21427;-64
2021/01/07 11:32:38;;;;;;;34.33;21.87;;;;;;;5.99;100.00;100497.48;1761416;79;21235;-73
2021/01/07 11:35:07;;;;;;;32.63;22.42;;;;;;;6.02;100.00;100489.42;1775850;78;21443;-65
2021/01/07 11:38:03;;;;;;;35.93;24.47;;;;;;;6.03;100.00;100480.69;1773552;78;21164;-66
2021/01/07 11:40:39;;;;;;;38.30;24.67;;;;;;;6.04;100.00;100481.50;1769436;79;21715;-65
2021/01/07 11:43:48;;;;;;;42.90;24.47;;;;;;;6.08;100.00;100477.17;1787784;79;21160;-66
2021/01/07 11:46:20;;;;;;;38.87;24.57;;;;;;;6.07;100.00;100476.03;1773583;79;21439;-65
2021/01/07 11:48:57;;;;;;;;;;;;;;;6.11;100.00;100480.44;1775279;79;21429;-64
2021/01/07 11:51:25;;;;;;;35.70;24.20;;;;;;;6.12;100.00;100481.57;1777114;79;20127;-64
2021/01/07 11:53:59;;;;;;;37.25;25.45;;;;;;;6.15;100.00;100471.41;1774664;78;21385;-64
2021/01/07 11:56:28;;;;;;;38.13;24.10;;;;;;;6.18;100.00;100473.70;1773330;79;21049;-64
2021/01/07 11:59:01;;;;;;;34.67;22.33;;;;;;;6.22;100.00;100473.73;1772563;79;21260;-71
2021/01/07 12:01:37;;;;;;;32.17;23.27;;;;;;;6.25;100.00;100474.71;1791354;78;22777;-64
2021/01/07 12:04:13;;;;;;;39.13;25.83;;;;;;;6.25;100.00;100467.78;1795404;78;21340;-66
2021/01/07 12:06:47;;;;;;;41.63;27.07;;;;;;;6.29;100.00;100468.30;1763522;79;21344;-65
2021/01/07 12:09:38;;;;;;;38.70;26.10;;;;;;;6.30;100.00;100466.03;1774164;79;22012;-66
2021/01/07 12:12:16;;;;;;;34.73;22.48;;;;;;;6.30;100.00;100463.45;1777681;79;21749;-64
2021/01/07 12:14:51;;;;;;;44.93;27.63;;;;;;;6.30;100.00;100460.86;1785467;79;21642;-64
2021/01/07 12:17:20;;;;;;;43.37;26.63;;;;;;;6.30;100.00;100466.03;1773541;80;21199;-65
2021/01/07 12:19:48;;;;;;;37.87;23.97;;;;;;;6.30;100.00;100473.31;1790719;78;21155;-66
2021/01/07 12:22:19;;;;;;;40.37;25.80;;;;;;;6.30;100.00;100460.86;1783054;79;21186;-65
2021/01/07 12:24:51;;;;;;;38.30;25.30;;;;;;;6.30;100.00;100468.63;1789016;79;21243;-67
2021/01/07 12:27:20;;;;;;;39.30;24.17;;;;;;;6.27;100.00;100462.45;1766331;79;21305;-65
2021/01/07 12:29:49;;;;;;;36.53;23.40;;;;;;;6.27;100.00;100461.16;1796495;79;21808;-66
2021/01/07 12:32:32;;;;;;;37.73;24.13;;;;;;;6.27;100.00;100461.16;1784535;79;21136;-65
2021/01/07 12:35:08;;;;;;;43.57;26.70;;;;;;;6.28;100.00;100458.40;1781727;79;21094;-65
2021/01/07 12:38:24;;;;;;;39.77;25.63;;;;;;;6.30;100.00;100457.78;1778484;78;21284;-68
2021/01/07 12:41:03;;;;;;;38.83;23.63;;;;;;;6.33;100.00;100451.50;1786024;78;21487;-66
2021/01/07 12:43:34;;;;;;;37.23;22.87;;;;;;;6.37;100.00;100451.53;1781735;79;21282;-66
2021/01/07 12:46:03;;;;;;;40.23;23.40;;;;;;;6.37;100.00;100453.31;1753445;80;21262;-66
2021/01/07 12:48:31;;;;;;;34.53;20.97;;;;;;;6.38;100.00;100455.73;1777475;79;21104;-66
2021/01/07 12:51:00;;;;;;;35.83;21.77;;;;;;;6.37;100.00;100450.23;1765030;78;21438;-66
2021/01/07 12:53:29;;;;;;;34.13;20.87;;;;;;;6.37;100.00;100439.07;1773938;79;22638;-66
2021/01/07 12:55:59;;;;;;;33.47;19.57;;;;;;;6.35;100.00;100444.37;1749668;80;21494;-69
2021/01/07 12:58:28;;;;;;;32.70;19.73;;;;;;;6.35;100.00;100437.91;1762833;79;21295;-73
2021/01/07 13:01:06;;;;;;;37.43;21.13;;;;;;;6.34;100.00;100431.11;1804146;78;22871;-67
2021/01/07 13:03:58;;;;;;;32.80;19.73;;;;;;;6.33;100.00;100431.59;1791730;78;21005;-69
2021/01/07 13:06:56;;;;;;;34.98;20.95;;;;;;;6.33;100.00;100424.31;1741781;80;21342;-67
2021/01/07 13:09:29;;;;;;;296.80;219.07;;;;;;;6.33;100.00;100427.72;1771665;80;20974;-75
2021/01/07 13:11:59;;;;;;;531.70;337.80;;;;;;;6.31;100.00;100414.09;1802472;78;22504;-69
2021/01/07 13:14:28;;;;;;;565.97;427.83;;;;;;;6.30;100.00;100408.59;1800905;78;21244;-67
2021/01/07 13:16:57;;;;;;;1050.17;771.10;;;;;;;6.28;100.00;100404.52;1811830;77;21711;-69
2021/01/07 13:19:26;;;;;;;478.77;427.23;;;;;;;6.26;100.00;100409.86;1800318;77;21402;-73
2021/01/07 13:21:55;;;;;;;112.63;97.43;;;;;;;6.24;100.00;100404.50;1795475;77;22494;-68
2021/01/07 13:24:23;;;;;;;46.13;31.53;;;;;;;6.22;100.00;100409.03;1776034;79;21417;-69
2021/01/07 13:26:53;;;;;;;34.37;23.47;;;;;;;6.20;100.00;100403.98;1777450;79;21699;-68
2021/01/07 13:29:23;;;;;;;36.00;22.80;;;;;;;6.20;100.00;100399.30;1776681;78;21389;-75
2021/01/07 13:31:51;;;;;;;43.00;27.80;;;;;;;6.19;100.00;100399.78;1774854;79;22563;-67
2021/01/07 13:34:21;;;;;;;30.40;18.93;;;;;;;6.17;100.00;100400.39;1781506;79;21314;-67
2021/01/07 13:36:50;;;;;;;31.63;19.83;;;;;;;6.15;100.00;100396.35;1755557;79;21740;-66
2021/01/07 13:39:19;;;;;;;32.93;18.37;;;;;;;6.13;100.00;100394.38;1803773;78;21339;-70
2021/01/07 13:41:48;;;;;;;30.90;18.63;;;;;;;6.12;100.00;100394.06;1803832;78;21393;-67
2021/01/07 13:44:18;;;;;;;36.00;21.30;;;;;;;6.11;100.00;100397.62;1797138;78;21498;-67
2021/01/07 13:46:47;;;;;;;56.75;43.85;;;;;;;6.07;100.00;100387.56;1801796;78;21863;-67
2021/01/07 13:49:16;;;;;;;476.50;425.37;;;;;;;6.04;100.00;100391.73;1798260;78;21054;-71
2021/01/07 13:51:53;;;;;;;84.23;75.00;;;;;;;6.02;100.00;100385.08;1791672;78;21302;-67
2021/01/07 13:54:22;;;;;;;32.53;22.03;;;;;;;5.99;100.00;100391.39;1784915;77;21409;-67
2021/01/07 13:56:51;;;;;;;33.67;22.20;;;;;;;5.96;100.00;100381.33;1805715;77;21397;-66
2021/01/07 13:59:20;;;;;;;42.17;31.47;;;;;;;5.93;100.00;100379.03;1802736;77;21714;-65
2021/01/07 14:01:48;;;;;;;82.97;74.43;;;;;;;5.91;100.00;100378.36;1802248;77;21810;-67
2021/01/07 14:04:17;;;;;;;33.57;23.67;;;;;;;5.87;100.00;100365.36;1811861;77;21152;-70
2021/01/07 14:06:45;;;;;;;30.77;18.03;;;;;;;5.85;100.00;100364.72;1808691;77;21483;-68
2021/01/07 14:09:21;;;;;;;38.13;32.53;;;;;;;5.82;100.00;100366.30;1792538;77;21405;-75
2021/01/07 14:11:50;;;;;;;26.00;17.13;;;;;;;5.79;100.00;100362.23;1801351;77;21243;-67
2021/01/07 14:14:19;;;;;;;26.57;16.67;;;;;;;5.80;100.00;100352.72;1790006;77;21297;-65
2021/01/07 14:16:47;;;;;;;23.47;15.53;;;;;;;5.79;100.00;100353.17;1804557;77;21846;-65
2021/01/07 14:19:16;;;;;;;22.13;14.17;;;;;;;5.76;100.00;100343.64;1778143;77;21299;-71
2021/01/07 14:21:44;;;;;;;25.03;15.50;;;;;;;5.74;100.00;100343.77;1794456;78;21393;-67
2021/01/07 14:24:14;;;;;;;95.33;52.50;;;;;;;5.71;100.00;100336.78;1796927;78;21198;-65
2021/01/07 14:27:09;;;;;;;193.50;104.83;;;;;;;5.67;100.00;100302.66;1775232;78;27864;-65
2021/01/07 14:29:38;;;;;;;53.53;29.77;;;;;;;5.63;100.00;100306.50;1799810;78;21199;-67
2021/01/07 14:32:06;;;;;;;25.43;16.20;;;;;;;5.61;100.00;100291.15;1785175;78;21721;-68
2021/01/07 14:34:39;;;;;;;19.40;13.10;;;;;;;5.59;100.00;100294.35;1809620;77;22680;-67
2021/01/07 14:37:08;;;;;;;19.43;12.40;;;;;;;5.56;100.00;100295.94;1815130;77;21180;-67
2021/01/07 14:39:38;;;;;;;18.50;10.80;;;;;;;5.55;100.00;100305.15;1800277;78;21432;-69
2021/01/07 14:42:10;;;;;;;17.33;11.70;;;;;;;5.52;100.00;100306.25;1777154;78;21176;-68
2021/01/07 14:44:38;;;;;;;15.67;10.20;;;;;;;5.53;100.00;100296.72;1756901;78;21081;-73
2021/01/07 14:47:07;;;;;;;15.53;10.05;;;;;;;5.54;100.00;100285.44;1809495;77;21543;-69
2021/01/07 14:49:36;;;;;;;14.25;9.10;;;;;;;5.54;100.00;100288.83;1808900;77;21069;-69
2021/01/07 14:52:06;;;;;;;13.53;9.28;;;;;;;5.54;100.00;100277.67;1796719;78;21147;-68
2021/01/07 14:54:35;;;;;;;14.97;9.73;;;;;;;5.54;100.00;100269.44;1780910;78;21079;-68
2021/01/07 14:57:14;;;;;;;16.30;11.07;;;;;;;5.55;100.00;100259.91;1817872;77;21326;-68
2021/01/07 14:59:55;;;;;;;13.58;10.00;;;;;;;5.55;100.00;100259.41;1785395;77;22281;-70
2021/01/07 15:02:36;;;;;;;13.45;9.43;;;;;;;5.55;100.00;100257.31;1794955;78;21581;-69
2021/01/07 15:05:07;;;;;;;14.83;10.23;;;;;;;5.55;100.00;100254.24;1752690;78;21220;-72
2021/01/07 15:07:59;;;;;;;18.23;12.28;;;;;;;5.55;100.00;100248.27;1779045;78;21127;-68
2021/01/07 15:10:28;;;;;;;22.00;13.80;;;;;;;5.53;100.00;100241.97;1792908;78;21233;-68
2021/01/07 15:13:06;;;;;;;14.30;9.20;;;;;;;5.51;100.00;100227.55;1814228;76;21355;-69
2021/01/07 15:15:50;;;;;;;14.50;9.20;;;;;;;5.49;100.00;100225.12;1795563;78;21352;-69
2021/01/07 15:18:40;;;;;;;15.03;10.57;;;;;;;5.49;100.00;100221.70;1782680;79;21281;-70
2021/01/07 15:21:10;;;;;;;15.23;10.72;;;;;;;5.50;100.00;100227.23;1772756;79;21390;-68
2021/01/07 15:24:08;;;;;;;16.77;12.47;;;;;;;5.50;100.00;100218.19;1782474;79;21141;-68
2021/01/07 15:27:16;;;;;;;14.97;10.03;;;;;;;5.49;100.00;100216.54;1737919;81;22636;-70
2021/01/07 15:29:51;;;;;;;47.30;42.20;;;;;;;5.48;100.00;100212.34;1759063;79;21271;-74
2021/01/07 15:32:34;;;;;;;24.87;20.45;;;;;;;5.46;100.00;100202.16;1792394;77;21339;-69
2021/01/07 15:35:11;;;;;;;18.23;13.25;;;;;;;5.45;100.00;100199.70;1787781;77;21046;-70